LiveATC.Net - Listen to live air traffic control over the Internet!


ICAO: MMLP  IATA: LAP   Airport: Gen Manuel Marquez Airport
City: La Paz
Country: Mexico   Continent: North America
MMLP METAR Weather: MMLP 240441Z 17008KT 10SM SKC 19/11 A2991
MMLP Flight Activity (FlightAware)

MMLP Twr/App/Center
Feed Status: UP   Listeners: 0
Listen in your browser - HTML5 player (in browser, HTML5)
Click here to listen with your own player (launches your MP3 player)
MMLP Twr/App/Center Audio Archives
FacilityFrequency
La Paz Approach120.600
La Paz Tower118.100
Mazatlan Center124.200
Mazatlan Center124.400
Mazatlan Center126.300
Mazatlan Center126.500
Mazatlan Center128.000
Mazatlan Center128.300
San Jose Approach120.900

NOTICE

Unauthorized use prohibited. See LiveATC.net Terms of Service


Find LiveATC Audio Streams


Airport/ARTCC Code

Frequency Search
(e.g., 124.400, 128.75)
Site-wide search
 


Browse LiveATC Feeds
Top 50 LiveATC Feeds
LiveATC Feed Map
Bad Weather Areas

LiveATC FAQ
Offer LiveATC feed
Contact LiveATC.net
Press Inquiries

LiveATC on iPhone
LiveATC on Android

Windows Phone
Windows 8/10

LiveATC Mobile
(Mobile browser)

ATC Audio Archives
Interesting Recordings

LiveATC Forums


Home Page
About LiveATC.net
Make a Donation
Terms of Use
Privacy Policy

Canadian Air Freqs

AIRMETs/SIGMETs

FAA Airport Status
Nat'l Airspace Status
Arrival Demand Charts


Server Software By:
Icecast.org
Liquidsoap